AIRPORT MAP

 RUNWAY INFORMATION

Runway 03 Runway length 4908 ft Runway width 98 ft
Runway elevation 10 ft Runway displaced threshold 656 ft Runway heading 20
Runway 21 Runway length 4908 ft Runway width 98 ft
Runway elevation 30 ft Runway displaced threshold 656 ft Runway heading 200

 AIRPORT FREQUENCIES

Type ATIS Name ATIS Frequency 129.925 MHZ
Type GND Name GND Frequency 129.8 MHZ
Type TWR Name TWR Frequency 129.8 MHZ

 AIRPORT NEAR NAVIGATION AIDS

Type NDB Name Donegal Frequency 361 KHZ

 METAR AND TAF INFORMATION

METAR FOR EIDL
ADDS - METARS form results

(2017 UTC 08 August 2020)
Data provider http://aviationweather.gov/metar/data/
 
Forecast for: EIDL (DONEGAL ARPT , IE)
Text: TAF EIDL 081700Z 0818/0903 03010KT 9999 FEW040
Forecast period: 1800 to 1900 UTC 08 August 2020
Forecast type: FROM: standard forecast or significant change
Winds: from the NNE (30 degrees) at 12 MPH (10 knots; 5.1 m/s)
Visibility: 6 or more miles (10+ km)
Ceiling: at least 12,000 feet AGL
Clouds: few clouds at 4000 feet AGL
Weather: no significant weather forecast for this period
Text: BECMG 0819/0821 08006KT
Forecast period: 1900 UTC 08 August 2020 to 0300 UTC 09 August 2020
Forecast type: BECOMING: Conditions expected to become as follows by 2100 UTC 08 August 2020
Winds: from the E (80 degrees) at 7 MPH (6 knots; 3.1 m/s)
Visibility: 6 or more miles (10+ km)
Ceiling: at least 12,000 feet AGL
Clouds: few clouds at 4000 feet AGL
Weather: no significant weather forecast for this period